Main page
METAR-TAF:

METAR-TAF

Airports :

Gorna Oryahovitsa Airport

Veliko Tarnovo, Bulgaria

latitude: 43-09N, longitude: 025-36E, elevation: 87 m

Current weather observation

The report was made 23 minutes ago, at 00:30 UTC
Wind 5 kt from the East
Temperature 0°C
Humidity 86%
Pressure 1024 hPa
Visibility 10 km or more

METAR: LBGO 110030Z AUTO 10005KT 9999 NCD M00/M02 Q1024

Time: 03:53 (00:53 UTC)

Forecast

The report was made 1 hour and 53 minutes ago, at 23:00 UTC
Forecast valid from 11 at 00 UTC to 11 at 24 UTC
Wind 4 kt from variable directions
Visibility 10 km or more
no clouds below 1500 m and no cumulonimbus
Becoming
from 11 at 07 UTC to 11 at 09 UTC
Wind 10 kt from the East

TAF: LBGO 102300Z 1100/1124 VRB04KT CAVOK BECMG 1107/1109 09010KT

Weather observations and forecasts of more than 4000 airports (METAR and TAF reports).

The available stations are represented by yellow and red dots on the map.

Hover mouse over dot to see the name of the station.

Then click to see weather observations and forecasts.

To change the map : click on the green buttons with a black cross to zoom in, on the green button with a dash to zoom out, or on the green arrows for adjacent maps.


METAR-TAF: